createdAt,value
2022-12-08T00:02:03.446Z,51.93
2022-12-08T00:04:52.384Z,52.28
2022-12-08T00:07:39.729Z,52.05
2022-12-08T00:10:25.522Z,52.02
2022-12-08T00:12:58.335Z,51.72
2022-12-08T00:15:26.558Z,51.83
2022-12-08T00:17:54.913Z,51.80
2022-12-08T00:20:23.162Z,51.76
2022-12-08T00:22:52.793Z,51.74
2022-12-08T00:25:21.114Z,51.45
2022-12-08T00:27:49.377Z,51.70
2022-12-08T00:30:18.064Z,51.50
2022-12-08T00:32:46.468Z,51.73
2022-12-08T00:35:14.804Z,51.79
2022-12-08T00:37:43.124Z,51.70
2022-12-08T00:40:13.114Z,51.74
2022-12-08T00:42:41.369Z,51.71
2022-12-08T00:45:10.638Z,51.58
2022-12-08T00:47:38.882Z,51.58
2022-12-08T00:50:09.201Z,51.56
2022-12-08T00:52:37.587Z,51.75
2022-12-08T00:55:06.999Z,51.94
2022-12-08T00:57:36.666Z,51.83
2022-12-08T01:00:06.986Z,51.63
2022-12-08T01:02:35.494Z,51.79
2022-12-08T01:05:03.837Z,51.67
2022-12-08T01:07:32.169Z,51.65
2022-12-08T01:10:00.866Z,51.63
2022-12-08T01:12:30.957Z,51.77
2022-12-08T01:15:02.591Z,52.00
2022-12-08T01:17:31.263Z,51.94
2022-12-08T01:19:59.594Z,51.72
2022-12-08T01:22:27.816Z,51.71
2022-12-08T01:24:56.020Z,51.67
2022-12-08T01:27:24.373Z,51.67
2022-12-08T01:29:52.713Z,51.96
2022-12-08T01:32:22.354Z,52.11
2022-12-08T01:34:50.603Z,51.70
2022-12-08T01:37:18.884Z,51.85
2022-12-08T01:39:47.136Z,51.83
2022-12-08T01:42:23.345Z,51.91
2022-12-08T01:44:59.043Z,51.72
2022-12-08T01:47:37.280Z,51.90
2022-12-08T01:50:10.492Z,51.80
2022-12-08T01:52:42.220Z,51.92
2022-12-08T01:55:17.727Z,52.06
2022-12-08T01:57:50.680Z,52.05
2022-12-08T02:00:22.284Z,51.95
2022-12-08T02:03:00.166Z,51.80
2022-12-08T02:05:33.019Z,51.76
2022-12-08T02:08:06.772Z,51.71
2022-12-08T02:10:38.459Z,52.12
2022-12-08T02:13:10.981Z,51.84
2022-12-08T02:15:59.472Z,51.83
2022-12-08T02:19:02.097Z,52.07
2022-12-08T02:21:46.362Z,51.94
2022-12-08T02:24:23.823Z,52.25
2022-12-08T02:27:29.499Z,52.07
2022-12-08T02:30:16.386Z,52.25
2022-12-08T02:33:26.608Z,51.95
2022-12-08T02:36:02.483Z,52.46
2022-12-08T02:38:47.111Z,52.53
2022-12-08T02:41:27.852Z,52.26
2022-12-08T02:44:02.805Z,52.30
2022-12-08T02:46:38.591Z,52.21
2022-12-08T02:49:08.241Z,52.36
2022-12-08T02:51:37.980Z,52.61
2022-12-08T02:54:06.507Z,52.32
2022-12-08T02:57:04.428Z,52.56
2022-12-08T02:59:53.977Z,52.33
2022-12-08T03:02:46.629Z,52.57
2022-12-08T03:05:30.056Z,52.44
2022-12-08T03:08:10.183Z,52.27
2022-12-08T03:10:44.683Z,52.65
2022-12-08T03:13:17.240Z,52.41
2022-12-08T03:15:50.082Z,52.38
2022-12-08T03:18:20.406Z,52.47
2022-12-08T03:20:50.325Z,52.43
2022-12-08T03:23:21.672Z,52.53
2022-12-08T03:25:58.852Z,52.72
2022-12-08T03:28:27.381Z,52.44
2022-12-08T03:31:00.112Z,52.55
2022-12-08T03:33:34.123Z,52.42
2022-12-08T03:36:05.817Z,52.59
2022-12-08T03:38:42.235Z,52.68
2022-12-08T03:41:20.049Z,52.74
2022-12-08T03:43:50.174Z,52.78
2022-12-08T03:48:47.840Z,52.57
2022-12-08T03:51:16.987Z,52.82
2022-12-08T03:53:47.433Z,52.76
2022-12-08T03:56:29.521Z,52.57
2022-12-08T03:58:58.024Z,52.51
2022-12-08T04:01:27.494Z,52.66
2022-12-08T04:03:56.082Z,52.82
2022-12-08T04:06:24.676Z,52.70
2022-12-08T04:08:54.580Z,52.60
2022-12-08T04:11:23.018Z,52.54
2022-12-08T04:13:51.302Z,52.55
2022-12-08T04:16:21.721Z,52.57
2022-12-08T04:18:50.296Z,52.86
2022-12-08T04:21:19.314Z,52.67
2022-12-08T04:23:48.020Z,52.69
2022-12-08T04:26:18.671Z,52.68
2022-12-08T04:28:47.201Z,52.71
2022-12-08T04:31:15.547Z,52.73
2022-12-08T04:33:43.972Z,53.00
2022-12-08T04:36:12.349Z,52.96
2022-12-08T04:38:40.632Z,52.56
2022-12-08T04:41:09.329Z,52.86
2022-12-08T04:43:39.012Z,52.62
2022-12-08T04:46:09.249Z,52.82
2022-12-08T04:48:39.708Z,52.83
2022-12-08T04:51:09.323Z,53.05
2022-12-08T04:53:42.036Z,52.76
2022-12-08T04:56:14.476Z,52.72
2022-12-08T04:58:44.232Z,52.77
2022-12-08T05:01:13.328Z,52.98
2022-12-08T05:03:41.733Z,52.82
2022-12-08T05:06:13.494Z,52.91
2022-12-08T05:08:41.950Z,52.72
2022-12-08T05:11:12.841Z,53.10
2022-12-08T05:13:41.198Z,52.75
2022-12-08T05:16:13.929Z,52.91
2022-12-08T05:18:43.757Z,52.93
2022-12-08T05:21:12.165Z,52.89
2022-12-08T05:23:40.706Z,52.78
2022-12-08T05:26:09.013Z,52.88
2022-12-08T05:28:42.357Z,52.82
2022-12-08T05:31:14.164Z,52.99
2022-12-08T05:33:42.903Z,53.01
2022-12-08T05:36:13.622Z,53.19
2022-12-08T05:38:42.430Z,53.14
2022-12-08T05:41:13.864Z,53.07
2022-12-08T05:43:42.205Z,53.52
2022-12-08T05:46:12.661Z,53.39
2022-12-08T05:48:41.481Z,53.48
2022-12-08T05:51:19.746Z,53.60
2022-12-08T05:53:49.388Z,53.34
2022-12-08T05:56:18.080Z,53.41
2022-12-08T05:58:46.677Z,53.78
2022-12-08T06:01:23.231Z,53.71
2022-12-08T06:03:51.552Z,53.47
2022-12-08T06:06:19.891Z,53.91
2022-12-08T06:08:48.372Z,53.87
2022-12-08T06:11:20.331Z,53.88
2022-12-08T06:13:49.390Z,53.84
2022-12-08T06:16:18.277Z,54.05
2022-12-08T06:18:48.384Z,54.09
2022-12-08T06:21:18.299Z,53.78
2022-12-08T06:23:50.008Z,54.03
2022-12-08T06:26:19.365Z,54.33
2022-12-08T06:28:48.095Z,54.00
2022-12-08T06:31:19.211Z,54.09
2022-12-08T06:33:49.677Z,54.38
2022-12-08T06:36:21.629Z,54.17
2022-12-08T06:38:50.390Z,54.17
2022-12-08T06:41:19.028Z,54.06
2022-12-08T06:43:47.498Z,54.16
2022-12-08T06:46:18.358Z,54.29
2022-12-08T06:48:48.881Z,54.01
2022-12-08T06:51:19.691Z,54.23
2022-12-08T06:53:48.262Z,54.14
2022-12-08T06:56:19.937Z,53.91
2022-12-08T06:58:52.333Z,54.31
2022-12-08T07:01:21.393Z,54.30
2022-12-08T07:03:51.101Z,54.11
2022-12-08T07:06:23.764Z,54.18
2022-12-08T07:08:52.120Z,54.41
2022-12-08T07:11:22.299Z,54.12
2022-12-08T07:13:51.687Z,54.30
2022-12-08T07:16:20.506Z,54.15
2022-12-08T07:18:50.618Z,54.22
2022-12-08T07:21:19.911Z,54.31
2022-12-08T07:23:55.991Z,54.11
2022-12-08T07:26:26.755Z,54.06
2022-12-08T07:28:55.039Z,54.34
2022-12-08T07:31:26.805Z,54.30
2022-12-08T07:33:58.168Z,54.02
2022-12-08T07:36:27.115Z,54.14
2022-12-08T07:38:55.744Z,54.59
2022-12-08T07:41:26.607Z,54.24
2022-12-08T07:43:55.438Z,54.23
2022-12-08T07:46:25.959Z,54.38
2022-12-08T07:48:57.121Z,54.22
2022-12-08T07:51:25.994Z,54.19
2022-12-08T07:53:55.244Z,54.45
2022-12-08T07:56:23.985Z,54.68
2022-12-08T07:58:52.501Z,54.27
2022-12-08T08:01:24.145Z,54.51
2022-12-08T08:03:52.648Z,54.11
2022-12-08T08:06:22.386Z,54.56
2022-12-08T08:08:51.103Z,54.39
2022-12-08T08:11:21.556Z,54.32
2022-12-08T08:13:50.567Z,54.64
2022-12-08T08:16:20.273Z,54.52
2022-12-08T08:18:49.952Z,54.34
2022-12-08T08:24:09.979Z,54.25
2022-12-08T08:26:38.712Z,54.07
2022-12-08T08:29:19.852Z,54.38
2022-12-08T08:31:48.100Z,54.32
2022-12-08T08:34:17.048Z,54.67
2022-12-08T08:36:46.823Z,55.03
2022-12-08T08:39:15.507Z,55.00
2022-12-08T08:41:43.858Z,54.57
2022-12-08T08:44:14.281Z,54.51
2022-12-08T08:46:42.689Z,54.73
2022-12-08T08:49:11.050Z,54.71
2022-12-08T08:51:39.348Z,54.66
2022-12-08T08:54:09.120Z,54.40
2022-12-08T08:56:37.379Z,54.35
2022-12-08T08:59:05.757Z,54.54
2022-12-08T09:01:35.320Z,54.43
2022-12-08T09:04:03.781Z,54.32
2022-12-08T09:06:32.159Z,54.51
2022-12-08T09:09:00.522Z,54.53
2022-12-08T09:11:30.172Z,54.31
2022-12-08T09:13:58.451Z,54.27
2022-12-08T09:16:26.850Z,54.48
2022-12-08T09:18:55.583Z,54.64
2022-12-08T09:21:26.723Z,54.43
2022-12-08T09:23:58.404Z,54.22
2022-12-08T09:26:29.268Z,54.35
2022-12-08T09:28:58.660Z,54.34
2022-12-08T09:31:27.324Z,54.09
2022-12-08T09:33:56.016Z,54.01
2022-12-08T09:36:24.340Z,53.83
2022-12-08T09:38:53.759Z,54.15
2022-12-08T09:41:38.974Z,53.83
2022-12-08T09:44:40.314Z,54.08
2022-12-08T09:47:27.486Z,54.22
2022-12-08T09:50:07.456Z,54.16
2022-12-08T09:52:43.156Z,54.09
2022-12-08T09:55:22.577Z,53.85
2022-12-08T09:58:02.168Z,53.88
2022-12-08T10:00:30.710Z,53.83
2022-12-08T10:03:00.117Z,53.70
2022-12-08T10:05:33.552Z,53.86
2022-12-08T10:08:11.009Z,53.83
2022-12-08T10:10:55.860Z,54.03
2022-12-08T10:13:34.503Z,53.75
2022-12-08T10:16:24.278Z,53.78
2022-12-08T10:19:02.908Z,53.98
2022-12-08T10:21:33.764Z,53.79
2022-12-08T10:24:14.111Z,53.98
2022-12-08T10:26:42.493Z,53.76
2022-12-08T10:29:14.526Z,53.76
2022-12-08T10:31:43.413Z,53.85
2022-12-08T10:34:19.605Z,53.40
2022-12-08T10:36:51.577Z,53.35
2022-12-08T10:39:34.625Z,53.35
2022-12-08T10:42:17.955Z,53.51
2022-12-08T10:45:21.526Z,53.71
2022-12-08T10:48:00.302Z,53.57
2022-12-08T10:50:35.716Z,53.59
2022-12-08T10:53:16.775Z,53.52
2022-12-08T10:55:47.703Z,53.27
2022-12-08T10:58:31.398Z,53.28
2022-12-08T11:01:05.688Z,53.35
2022-12-08T11:03:45.670Z,53.15
2022-12-08T11:06:19.992Z,53.04
2022-12-08T11:08:53.026Z,53.13
2022-12-08T11:11:29.057Z,53.01
2022-12-08T11:13:57.882Z,53.04
2022-12-08T11:16:29.055Z,53.00
2022-12-08T11:18:59.453Z,53.17
2022-12-08T11:21:37.728Z,52.99
2022-12-08T11:24:24.447Z,52.81
2022-12-08T11:26:57.650Z,52.75
2022-12-08T11:29:25.961Z,52.68
2022-12-08T11:32:02.216Z,52.77
2022-12-08T11:34:38.022Z,52.45
2022-12-08T11:37:10.881Z,52.41
2022-12-08T11:39:51.444Z,52.33
2022-12-08T11:42:24.660Z,52.32
2022-12-08T11:44:58.380Z,52.06
2022-12-08T11:47:32.318Z,51.93
2022-12-08T11:50:18.093Z,51.82
2022-12-08T11:52:51.587Z,51.72
2022-12-08T11:55:37.129Z,51.88
2022-12-08T11:58:19.301Z,51.43
2022-12-08T12:00:47.662Z,51.35
2022-12-08T12:03:29.756Z,51.35
2022-12-08T12:09:19.455Z,51.35
2022-12-08T12:12:16.606Z,50.94
2022-12-08T12:15:15.749Z,50.90
2022-12-08T12:17:49.203Z,50.97
2022-12-08T12:20:25.649Z,51.13
2022-12-08T12:23:00.077Z,50.75
2022-12-08T12:25:29.392Z,50.56
2022-12-08T12:28:03.855Z,50.84
2022-12-08T12:30:53.232Z,50.56
2022-12-08T12:33:23.857Z,50.48
2022-12-08T12:35:57.109Z,50.71
2022-12-08T12:38:50.562Z,50.76
2022-12-08T12:41:25.708Z,50.28
2022-12-08T12:44:26.895Z,50.34
2022-12-08T12:46:58.553Z,50.34
2022-12-08T12:49:53.496Z,50.29
2022-12-08T12:52:41.987Z,50.24
2022-12-08T12:55:29.975Z,50.14
2022-12-08T12:57:59.862Z,50.18
2022-12-08T13:00:29.065Z,50.04
2022-12-08T13:02:59.166Z,49.75
2022-12-08T13:05:30.577Z,49.56
2022-12-08T13:08:05.123Z,49.46
2022-12-08T13:10:36.605Z,49.48
2022-12-08T13:13:19.151Z,49.14
2022-12-08T13:15:53.443Z,48.86
2022-12-08T13:18:26.211Z,48.75
2022-12-08T13:21:03.853Z,48.73
2022-12-08T13:23:47.769Z,48.77
2022-12-08T13:26:22.294Z,48.79
2022-12-08T13:29:22.774Z,48.73
2022-12-08T13:31:53.758Z,48.75
2022-12-08T13:34:30.727Z,48.79
2022-12-08T13:37:14.981Z,48.53
2022-12-08T13:39:51.067Z,48.25
2022-12-08T13:42:26.150Z,48.42
2022-12-08T13:59:33.863Z,49.81
2022-12-08T14:02:06.771Z,49.87
2022-12-08T14:05:09.114Z,50.07
2022-12-08T14:07:24.946Z,50.19
2022-12-08T14:09:54.025Z,50.20
2022-12-08T14:12:26.740Z,49.88
2022-12-08T14:15:14.777Z,49.78
2022-12-08T14:17:52.823Z,49.81
2022-12-08T14:20:25.800Z,49.72
2022-12-08T14:22:54.843Z,49.66
2022-12-08T14:25:24.523Z,49.76
2022-12-08T14:28:00.692Z,49.70
2022-12-08T14:30:32.971Z,49.58
2022-12-08T14:33:03.624Z,49.58
2022-12-08T14:35:34.316Z,49.52
2022-12-08T14:38:05.086Z,49.65
2022-12-08T14:40:36.718Z,49.51
2022-12-08T14:43:17.827Z,49.42
2022-12-08T14:45:53.393Z,49.43
2022-12-08T14:48:27.031Z,49.50
2022-12-08T14:51:21.054Z,49.47
2022-12-08T14:53:54.957Z,49.42
2022-12-08T14:56:27.343Z,49.55
2022-12-08T14:59:11.696Z,49.55
2022-12-08T15:01:40.383Z,49.49
2022-12-08T15:04:17.017Z,49.25
2022-12-08T15:06:54.435Z,49.31
2022-12-08T15:09:33.688Z,49.53
2022-12-08T15:12:03.304Z,49.27
2022-12-08T15:14:36.909Z,49.28
2022-12-08T15:17:29.748Z,49.31
2022-12-08T15:19:59.054Z,49.21
2022-12-08T15:22:27.715Z,49.35
2022-12-08T15:24:56.836Z,49.16
2022-12-08T15:27:27.130Z,49.06
2022-12-08T15:29:56.729Z,49.09
2022-12-08T15:32:25.313Z,49.48
2022-12-08T15:34:53.567Z,49.20
2022-12-08T15:37:24.726Z,49.04
2022-12-08T15:39:53.856Z,49.12
2022-12-08T15:42:22.112Z,49.01
2022-12-08T15:44:51.478Z,48.99
2022-12-08T15:47:24.436Z,48.93
2022-12-08T15:49:53.792Z,48.77
2022-12-08T15:52:24.767Z,49.01
2022-12-08T15:54:53.116Z,48.89
2022-12-08T16:00:51.832Z,49.12
2022-12-08T16:09:12.900Z,49.35
2022-12-08T16:12:08.883Z,49.50
2022-12-08T16:17:28.637Z,49.63
2022-12-08T16:19:58.381Z,49.72
2022-12-08T16:25:20.392Z,49.80
2022-12-08T16:28:29.530Z,49.79
2022-12-08T16:30:39.509Z,49.90
2022-12-08T16:33:07.919Z,49.85
2022-12-08T16:35:37.510Z,49.77
2022-12-08T16:38:05.985Z,49.75
2022-12-08T16:40:54.417Z,49.56
2022-12-08T16:43:21.719Z,49.82
2022-12-08T16:45:49.997Z,49.78
2022-12-08T16:48:18.394Z,49.81
2022-12-08T16:50:48.058Z,49.82
2022-12-08T16:53:16.555Z,49.90
2022-12-08T16:55:48.212Z,49.63
2022-12-08T16:58:18.349Z,49.68
2022-12-08T17:00:46.997Z,49.97
2022-12-08T17:03:17.548Z,50.00
2022-12-08T17:05:47.329Z,49.90
2022-12-08T17:08:15.754Z,49.94
2022-12-08T17:10:44.114Z,49.93
2022-12-08T17:13:13.128Z,50.04
2022-12-08T17:15:41.603Z,50.12
2022-12-08T17:18:09.840Z,49.99
2022-12-08T17:20:38.152Z,50.04
2022-12-08T17:23:07.792Z,49.75
2022-12-08T17:25:37.343Z,50.08
2022-12-08T17:28:05.822Z,50.06
2022-12-08T17:30:34.072Z,50.11
2022-12-08T17:33:02.305Z,49.94
2022-12-08T17:35:30.526Z,50.10
2022-12-08T17:37:58.752Z,49.75
2022-12-08T17:40:28.579Z,50.23
2022-12-08T17:42:56.888Z,50.01
2022-12-08T17:45:25.203Z,49.95
2022-12-08T17:47:53.442Z,50.07
2022-12-08T17:50:21.857Z,50.43
2022-12-08T17:52:51.222Z,50.23
2022-12-08T17:55:19.466Z,50.58
2022-12-08T17:57:49.106Z,50.67
2022-12-08T18:00:17.896Z,50.73
2022-12-08T18:02:46.154Z,50.46
2022-12-08T18:05:14.445Z,50.63
2022-12-08T18:07:42.770Z,50.80
2022-12-08T18:10:11.176Z,50.84
2022-12-08T18:12:39.540Z,50.66
2022-12-08T18:15:13.015Z,50.88
2022-12-08T18:17:41.272Z,50.94
2022-12-08T18:20:11.217Z,50.85
2022-12-08T18:22:39.558Z,50.89
2022-12-08T18:25:09.505Z,50.82
2022-12-08T18:27:43.027Z,50.85
2022-12-08T18:30:19.075Z,50.78
2022-12-08T18:32:47.710Z,50.84
2022-12-08T18:35:16.180Z,50.93
2022-12-08T18:37:44.549Z,50.97
2022-12-08T18:40:14.644Z,51.26
2022-12-08T18:42:43.030Z,51.19
2022-12-08T18:45:17.902Z,51.28
2022-12-08T18:47:51.319Z,51.38
2022-12-08T18:50:19.975Z,51.23
2022-12-08T18:52:48.681Z,51.12
2022-12-08T18:55:17.144Z,51.30
2022-12-08T18:57:45.482Z,51.23
2022-12-08T19:00:18.955Z,51.05
2022-12-08T19:02:47.463Z,51.38
2022-12-08T19:05:16.451Z,51.46
2022-12-08T19:07:45.602Z,51.32
2022-12-08T19:10:14.271Z,51.21
2022-12-08T19:12:42.841Z,51.26
2022-12-08T19:15:12.331Z,51.23
2022-12-08T19:17:42.067Z,51.43
2022-12-08T19:20:12.140Z,51.54
2022-12-08T19:22:40.479Z,51.56
2022-12-08T19:25:09.632Z,51.62
2022-12-08T19:27:37.896Z,51.57
2022-12-08T19:30:08.458Z,51.32
2022-12-08T19:32:36.997Z,51.23
2022-12-08T19:35:07.541Z,51.50
2022-12-08T19:37:36.125Z,51.47
2022-12-08T19:40:22.332Z,51.53
2022-12-08T19:43:08.014Z,51.51
2022-12-08T19:45:37.700Z,51.15
2022-12-08T19:48:06.852Z,51.36
2022-12-08T19:50:40.525Z,51.18
2022-12-08T19:53:12.190Z,51.62
2022-12-08T19:55:41.359Z,51.70
2022-12-08T19:58:11.209Z,51.32
2022-12-08T20:00:41.283Z,51.42
2022-12-08T20:03:11.571Z,51.47
2022-12-08T20:05:43.039Z,51.52
2022-12-08T20:08:12.043Z,51.69
2022-12-08T20:10:44.026Z,51.19
2022-12-08T20:13:30.854Z,51.49
2022-12-08T20:15:59.533Z,51.58
2022-12-08T20:18:28.811Z,51.14
2022-12-08T20:20:58.585Z,51.45
2022-12-08T20:23:26.951Z,51.43
2022-12-08T20:25:55.316Z,51.30
2022-12-08T20:28:23.800Z,51.59
2022-12-08T20:30:52.469Z,51.22
2022-12-08T20:33:21.168Z,51.54
2022-12-08T20:36:00.845Z,51.64
2022-12-08T20:38:29.925Z,51.38
2022-12-08T20:40:59.064Z,51.58
2022-12-08T20:43:27.730Z,51.55
2022-12-08T20:45:59.207Z,51.43
2022-12-08T20:48:27.864Z,51.43
2022-12-08T20:50:56.224Z,51.41
2022-12-08T20:53:26.036Z,51.62
2022-12-08T20:55:54.812Z,51.77
2022-12-08T20:58:23.835Z,51.58
2022-12-08T21:00:52.394Z,51.53
2022-12-08T21:03:20.902Z,51.52
2022-12-08T21:05:51.017Z,51.85
2022-12-08T21:08:20.516Z,51.55
2022-12-08T21:10:56.150Z,52.04
2022-12-08T21:13:25.036Z,51.95
2022-12-08T21:15:53.829Z,51.70
2022-12-08T21:18:22.705Z,52.00
2022-12-08T21:20:51.542Z,51.72
2022-12-08T21:23:20.175Z,52.01
2022-12-08T21:25:49.118Z,51.89
2022-12-08T21:28:18.982Z,51.95
2022-12-08T21:30:47.473Z,51.67
2022-12-08T21:33:15.997Z,51.94
2022-12-08T21:35:44.650Z,52.03
2022-12-08T21:38:13.121Z,51.91
2022-12-08T21:40:41.527Z,51.77
2022-12-08T21:43:10.101Z,51.91
2022-12-08T21:45:39.968Z,51.59
2022-12-08T21:48:11.713Z,51.80
2022-12-08T21:50:40.567Z,51.59
2022-12-08T21:53:09.112Z,51.67
2022-12-08T21:55:37.666Z,51.58
2022-12-08T21:58:06.228Z,51.81
2022-12-08T22:00:34.689Z,51.43
2022-12-08T22:03:05.539Z,51.52
2022-12-08T22:05:36.611Z,51.29
2022-12-08T22:08:05.112Z,51.46
2022-12-08T22:10:33.735Z,51.75
2022-12-08T22:13:02.281Z,51.50
2022-12-08T22:18:11.464Z,51.57
2022-12-08T22:20:44.185Z,51.34
2022-12-08T22:23:12.985Z,51.58
2022-12-08T22:25:41.315Z,51.62
2022-12-08T22:28:09.594Z,51.64
2022-12-08T22:30:39.695Z,51.80
2022-12-08T22:33:09.452Z,51.84
2022-12-08T22:35:37.744Z,52.00
2022-12-08T22:38:06.029Z,52.09
2022-12-08T22:40:34.308Z,52.42
2022-12-08T22:43:02.814Z,52.25
2022-12-08T22:45:31.257Z,52.61
2022-12-08T22:47:59.768Z,52.15
2022-12-08T22:50:29.427Z,52.36
2022-12-08T22:52:57.702Z,52.60
2022-12-08T22:55:26.008Z,52.07
2022-12-08T22:57:54.331Z,52.50
2022-12-08T23:00:22.708Z,52.13
2022-12-08T23:02:51.256Z,52.13
2022-12-08T23:05:19.852Z,51.95
2022-12-08T23:07:49.553Z,52.17
2022-12-08T23:10:18.880Z,52.44
2022-12-08T23:12:47.134Z,52.42
2022-12-08T23:15:15.530Z,52.19
2022-12-08T23:17:44.005Z,52.06
2022-12-08T23:20:13.869Z,52.43
2022-12-08T23:22:42.107Z,52.36
2022-12-08T23:25:11.889Z,52.57
2022-12-08T23:27:40.351Z,52.22
2022-12-08T23:30:10.791Z,52.40
2022-12-08T23:32:39.641Z,52.54
2022-12-08T23:35:09.588Z,52.45
2022-12-08T23:37:38.033Z,52.36
2022-12-08T23:40:08.868Z,52.63
2022-12-08T23:42:38.902Z,52.46
2022-12-08T23:45:09.573Z,52.46
2022-12-08T23:47:38.056Z,52.50
2022-12-08T23:50:08.673Z,53.07
2022-12-08T23:52:39.513Z,52.96
2022-12-08T23:55:11.154Z,52.93
2022-12-08T23:57:41.028Z,52.86
